createdAt,value
2023-05-18T01:06:47.750Z,16.10
2023-05-18T01:09:17.811Z,13.70
2023-05-18T01:27:06.889Z,12.00
2023-05-18T01:29:36.167Z,8.00
2023-05-18T01:32:07.728Z,8.90
2023-05-18T01:34:38.366Z,14.30
2023-05-18T01:37:11.305Z,10.30
2023-05-18T01:43:19.967Z,9.90
2023-05-18T01:46:28.814Z,11.10
2023-05-18T01:49:26.166Z,8.00
2023-05-18T02:41:08.250Z,9.40
2023-05-18T04:36:49.551Z,11.10
2023-05-18T04:43:11.609Z,8.60
2023-05-18T04:46:14.363Z,9.60
2023-05-18T04:48:53.216Z,14.60
2023-05-18T04:51:57.953Z,12.10
2023-05-18T04:58:03.982Z,9.20
2023-05-18T05:01:52.955Z,11.30
2023-05-18T05:05:33.241Z,12.70
2023-05-18T05:08:09.140Z,10.30
2023-05-18T05:10:38.276Z,9.80
2023-05-18T05:13:07.176Z,8.00
2023-05-18T05:20:46.824Z,10.10
2023-05-18T05:27:10.248Z,10.40
2023-05-18T05:29:43.055Z,12.50
2023-05-18T05:32:12.718Z,7.30
2023-05-18T05:34:46.816Z,11.00
2023-05-18T05:37:15.181Z,10.00
2023-05-18T05:39:45.685Z,8.30
2023-05-18T05:42:16.920Z,9.50
2023-05-18T05:44:47.240Z,10.90
2023-05-18T05:47:17.574Z,9.40
2023-05-18T05:49:46.557Z,10.00
2023-05-18T05:52:17.829Z,11.30
2023-05-18T05:54:46.556Z,5.70
2023-05-18T05:57:19.003Z,10.50
2023-05-18T05:59:49.977Z,8.30
2023-05-18T06:02:19.101Z,9.90
2023-05-18T06:04:49.458Z,7.70
2023-05-18T06:07:17.677Z,10.40
2023-05-18T06:09:50.619Z,8.80
2023-05-18T06:14:54.441Z,12.40
2023-05-18T06:17:28.039Z,9.20
2023-05-18T06:19:58.552Z,7.70
2023-05-18T06:22:29.852Z,5.50
2023-05-18T06:25:22.396Z,10.30
2023-05-18T06:28:08.382Z,5.00
2023-05-18T06:30:46.682Z,6.40
2023-05-18T06:33:21.592Z,4.40
2023-05-18T06:35:50.030Z,5.90
2023-05-18T06:38:21.499Z,8.80
2023-05-18T06:40:50.380Z,6.50
2023-05-18T06:43:18.965Z,6.80
2023-05-18T06:46:01.800Z,3.70
2023-05-18T06:48:37.932Z,6.80
2023-05-18T06:51:06.446Z,5.80
2023-05-18T06:53:34.907Z,2.80
2023-05-18T06:56:04.887Z,7.80
2023-05-18T06:58:33.588Z,4.90
2023-05-18T07:01:05.346Z,5.10
2023-05-18T07:03:39.453Z,4.40
2023-05-18T07:06:12.445Z,7.00
2023-05-18T07:11:14.958Z,4.80
2023-05-18T07:13:45.134Z,5.00
2023-05-18T07:16:15.797Z,5.50
2023-05-18T07:18:44.157Z,5.90
2023-05-18T07:21:17.389Z,6.70
2023-05-18T07:23:47.833Z,7.40
2023-05-18T07:26:16.215Z,5.50
2023-05-18T07:28:44.973Z,5.20
2023-05-18T07:51:38.792Z,7.40
2023-05-18T07:54:07.410Z,6.10
2023-05-18T07:56:40.845Z,10.30
2023-05-18T07:59:12.140Z,5.20
2023-05-18T08:01:41.532Z,5.70
2023-05-18T08:04:11.970Z,8.20
2023-05-18T08:06:40.106Z,2.70
2023-05-18T08:09:07.884Z,5.10
2023-05-18T08:11:36.163Z,3.60
2023-05-18T08:14:09.281Z,5.50
2023-05-18T08:16:40.000Z,6.80
2023-05-18T08:19:10.877Z,4.30
2023-05-18T08:21:39.021Z,5.70
2023-05-18T08:24:09.888Z,3.90
2023-05-18T08:26:43.061Z,7.20
2023-05-18T08:29:13.791Z,5.40
2023-05-18T08:31:46.356Z,2.30
2023-05-18T08:34:15.699Z,7.60
2023-05-18T08:36:46.476Z,4.50
2023-05-18T08:39:19.355Z,5.70
2023-05-18T08:42:04.679Z,4.80
2023-05-18T08:44:47.462Z,3.30
2023-05-18T08:47:18.366Z,5.40
2023-05-18T08:49:52.707Z,6.10
2023-05-18T08:52:26.401Z,4.70
2023-05-18T08:54:56.526Z,5.50
2023-05-18T08:57:30.694Z,4.50
2023-05-18T09:00:01.095Z,6.80
2023-05-18T09:02:31.575Z,7.30
2023-05-18T09:05:00.191Z,3.40
2023-05-18T09:07:31.536Z,4.70
2023-05-18T09:10:01.144Z,3.20
2023-05-18T09:12:34.488Z,7.00
2023-05-18T09:15:03.826Z,9.90
2023-05-18T09:17:32.030Z,4.60
2023-05-18T09:20:02.449Z,3.10
2023-05-18T09:22:30.491Z,3.20
2023-05-18T09:24:58.660Z,2.10
2023-05-18T09:27:30.560Z,2.80
2023-05-18T09:29:58.846Z,5.90
2023-05-18T09:32:27.145Z,5.30
2023-05-18T09:34:55.562Z,7.70
2023-05-18T09:37:23.762Z,3.50
2023-05-18T09:40:06.252Z,7.40
2023-05-18T09:42:39.190Z,10.30
2023-05-18T09:45:28.809Z,2.60
2023-05-18T09:47:57.242Z,3.60
2023-05-18T09:50:26.597Z,3.50
2023-05-18T09:52:57.541Z,4.10
2023-05-18T09:55:25.597Z,8.70
2023-05-18T09:57:56.306Z,5.50
2023-05-18T10:00:26.952Z,5.90
2023-05-18T10:02:56.677Z,3.40
2023-05-18T10:05:34.051Z,3.90
2023-05-18T10:08:03.486Z,11.40
2023-05-18T10:10:31.462Z,5.50
2023-05-18T10:13:04.786Z,6.50
2023-05-18T10:15:35.335Z,4.00
2023-05-18T10:18:07.704Z,4.60
2023-05-18T10:23:08.700Z,4.60
2023-05-18T10:25:42.564Z,4.40
2023-05-18T10:28:26.054Z,2.80
2023-05-18T10:31:00.374Z,5.00
2023-05-18T10:33:33.490Z,4.80
2023-05-18T10:36:11.229Z,5.70
2023-05-18T10:38:46.913Z,4.90
2023-05-18T10:41:21.636Z,3.60
2023-05-18T10:43:49.933Z,4.30
2023-05-18T10:46:21.599Z,7.30
2023-05-18T10:48:52.991Z,4.30
2023-05-18T10:51:25.985Z,3.60
2023-05-18T10:54:10.284Z,3.60
2023-05-18T10:56:52.320Z,5.50
2023-05-18T10:59:23.441Z,8.80
2023-05-18T11:01:54.389Z,7.30
2023-05-18T11:04:31.585Z,5.80
2023-05-18T11:07:01.542Z,9.70
2023-05-18T11:09:32.671Z,2.80
2023-05-18T11:12:06.316Z,3.80
2023-05-18T11:14:34.695Z,6.20
2023-05-18T11:17:23.547Z,2.10
2023-05-18T11:20:06.358Z,2.40
2023-05-18T11:23:02.540Z,3.90
2023-05-18T11:25:33.205Z,2.40
2023-05-18T11:28:05.796Z,3.20
2023-05-18T11:30:33.835Z,2.20
2023-05-18T11:33:11.191Z,1.60
2023-05-18T11:36:08.709Z,3.10
2023-05-18T11:39:03.688Z,4.20
2023-05-18T11:41:42.645Z,3.00
2023-05-18T11:44:25.142Z,5.10
2023-05-18T11:47:16.147Z,2.80
2023-05-18T11:50:00.465Z,1.80
2023-05-18T11:52:31.448Z,4.60
2023-05-18T11:55:02.842Z,4.50
2023-05-18T11:57:36.688Z,2.40
2023-05-18T12:37:58.226Z,5.10
2023-05-18T12:40:26.787Z,3.80
2023-05-18T12:42:57.142Z,7.30
2023-05-18T12:45:28.650Z,4.60
2023-05-18T12:47:57.610Z,5.00
2023-05-18T12:50:27.223Z,6.20
2023-05-18T12:52:59.248Z,3.20
2023-05-18T12:55:28.314Z,2.50
2023-05-18T12:58:12.995Z,4.60
2023-05-18T13:00:43.493Z,3.20
2023-05-18T13:03:16.486Z,4.30
2023-05-18T13:06:04.469Z,4.40
2023-05-18T13:08:34.937Z,3.20
2023-05-18T14:08:58.880Z,4.30
2023-05-18T14:11:26.803Z,3.50
2023-05-18T14:13:54.889Z,4.70
2023-05-18T14:16:23.156Z,2.20
2023-05-18T14:18:51.261Z,2.80
2023-05-18T14:21:21.571Z,2.80
2023-05-18T14:23:49.429Z,1.60
2023-05-18T14:26:17.492Z,2.90
2023-05-18T14:28:46.261Z,2.80
2023-05-18T14:31:14.558Z,2.30
2023-05-18T14:33:42.519Z,4.20
2023-05-18T14:36:10.486Z,1.70
2023-05-18T14:38:41.425Z,2.60
2023-05-18T14:41:12.299Z,2.30
2023-05-18T14:43:40.110Z,2.10
2023-05-18T14:46:10.796Z,1.80
2023-05-18T14:48:41.010Z,1.30
2023-05-18T14:51:11.163Z,3.70
2023-05-18T14:53:39.451Z,3.80
2023-05-18T14:56:09.302Z,2.30
2023-05-18T14:58:39.919Z,3.50
2023-05-18T15:01:10.428Z,2.90
2023-05-18T15:03:38.370Z,1.20
2023-05-18T15:06:11.581Z,3.40
2023-05-18T15:08:39.512Z,5.60
2023-05-18T15:11:10.064Z,5.20
2023-05-18T15:13:37.875Z,2.20
2023-05-18T15:16:05.885Z,3.70
2023-05-18T15:18:36.178Z,1.50
2023-05-18T15:21:04.344Z,1.90
2023-05-18T15:23:37.025Z,3.20
2023-05-18T15:26:07.382Z,2.30
2023-05-18T15:28:38.939Z,3.00
2023-05-18T15:31:06.821Z,2.40
2023-05-18T15:33:36.724Z,1.90
2023-05-18T15:36:10.123Z,2.20
2023-05-18T15:38:41.150Z,2.10
2023-05-18T15:41:09.131Z,2.10
2023-05-18T15:43:40.557Z,2.10
2023-05-18T15:46:11.314Z,3.50
2023-05-18T15:48:44.445Z,2.60
2023-05-18T15:51:15.037Z,1.90
2023-05-18T15:53:50.490Z,3.00
2023-05-18T15:56:19.048Z,3.30
2023-05-18T15:58:49.290Z,1.50
2023-05-18T16:01:22.889Z,1.60
2023-05-18T16:03:55.884Z,2.60
2023-05-18T16:06:26.057Z,3.90
2023-05-18T16:08:56.648Z,3.80
2023-05-18T16:11:24.479Z,6.10
2023-05-18T16:13:57.113Z,2.60
2023-05-18T16:16:29.927Z,7.60
2023-05-18T16:19:07.313Z,1.70
2023-05-18T16:21:35.417Z,1.30
2023-05-18T16:24:03.832Z,1.80
2023-05-18T16:26:36.341Z,3.50
2023-05-18T16:29:05.318Z,2.30
2023-05-18T16:31:34.365Z,1.80
2023-05-18T16:34:05.883Z,3.70
2023-05-18T16:36:37.419Z,8.70
2023-05-18T16:39:07.967Z,4.30
2023-05-18T16:41:35.937Z,1.10
2023-05-18T16:44:06.333Z,2.60
2023-05-18T16:46:34.578Z,3.30
2023-05-18T16:49:05.182Z,2.20
2023-05-18T16:51:35.537Z,3.70
2023-05-18T16:54:06.920Z,1.40
2023-05-18T16:56:37.515Z,2.00
2023-05-18T16:59:05.631Z,1.20
2023-05-18T17:01:34.149Z,2.40
2023-05-18T17:04:02.399Z,1.30
2023-05-18T17:06:32.951Z,1.80
2023-05-18T17:09:00.789Z,2.20
2023-05-18T17:11:29.096Z,2.90
2023-05-18T17:14:04.400Z,1.60
2023-05-18T17:16:34.414Z,7.90
2023-05-18T17:19:02.909Z,4.20
2023-05-18T17:21:31.126Z,2.30
2023-05-18T17:23:59.277Z,2.70
2023-05-18T17:26:30.817Z,3.20
2023-05-18T17:28:58.800Z,3.60
2023-05-18T17:31:29.291Z,2.50
2023-05-18T17:33:59.680Z,1.60
2023-05-18T17:36:27.772Z,3.20
2023-05-18T17:38:56.628Z,3.10
2023-05-18T17:41:26.107Z,2.30
2023-05-18T17:43:54.667Z,2.70
2023-05-18T17:46:27.974Z,3.20
2023-05-18T17:48:58.561Z,5.60
2023-05-18T17:51:29.336Z,5.00
2023-05-18T17:53:57.506Z,4.40
2023-05-18T17:56:28.185Z,3.20
2023-05-18T17:58:58.672Z,8.20
2023-05-18T18:01:28.159Z,2.70
2023-05-18T18:03:57.582Z,3.40
2023-05-18T18:06:26.703Z,2.60
2023-05-18T18:08:57.593Z,6.70
2023-05-18T18:11:26.577Z,2.00
2023-05-18T18:13:55.492Z,3.10
2023-05-18T18:16:23.696Z,3.90
2023-05-18T18:18:52.384Z,5.90
2023-05-18T18:21:20.601Z,3.70
2023-05-18T18:23:48.529Z,5.30
2023-05-18T18:26:16.882Z,4.40
2023-05-18T18:28:45.007Z,5.80
2023-05-18T18:31:15.286Z,3.90
2023-05-18T18:33:50.061Z,5.50
2023-05-18T18:38:47.102Z,6.10
2023-05-18T18:41:17.724Z,7.70
2023-05-18T18:43:47.831Z,8.70
2023-05-18T18:46:15.914Z,4.60
2023-05-18T18:48:48.321Z,5.90
2023-05-18T18:51:23.610Z,6.80
2023-05-18T20:05:32.015Z,18.40
2023-05-18T20:08:02.050Z,12.40
2023-05-18T20:10:30.571Z,9.20
2023-05-18T20:13:04.051Z,12.80
2023-05-18T20:15:37.124Z,9.40
2023-05-18T20:25:56.288Z,10.40
2023-05-18T20:28:27.747Z,9.00
2023-05-18T20:30:55.981Z,8.40
2023-05-18T20:33:23.903Z,7.90
2023-05-18T20:35:51.938Z,5.10
2023-05-18T20:38:19.988Z,6.20
2023-05-18T20:40:51.128Z,4.60
2023-05-18T20:43:19.395Z,7.70
2023-05-18T20:45:49.383Z,7.90
2023-05-18T20:50:54.943Z,6.70
2023-05-18T21:16:18.585Z,5.00
2023-05-18T21:18:49.037Z,5.80
2023-05-18T21:21:19.375Z,4.70
2023-05-18T21:23:47.489Z,5.70
2023-05-18T21:26:20.711Z,9.10
2023-05-18T21:28:48.580Z,5.80
2023-05-18T21:31:19.278Z,6.50
2023-05-18T21:33:48.444Z,4.80
2023-05-18T21:36:16.644Z,5.70
2023-05-18T21:38:47.114Z,7.80
2023-05-18T21:41:14.998Z,5.10
2023-05-18T21:43:43.403Z,8.20
2023-05-18T21:46:14.024Z,9.10
2023-05-18T21:48:44.556Z,8.10
2023-05-18T21:51:14.982Z,6.90
2023-05-18T21:53:48.056Z,4.90
2023-05-18T21:56:24.065Z,5.90
2023-05-18T21:58:52.463Z,5.00
2023-05-18T22:01:24.056Z,10.00
2023-05-18T22:03:54.521Z,6.60
2023-05-18T22:06:24.804Z,5.70
2023-05-18T22:08:57.569Z,8.00
2023-05-18T22:11:28.823Z,5.30
2023-05-18T22:13:59.116Z,9.60
2023-05-18T22:16:31.707Z,7.10
2023-05-18T22:21:27.956Z,5.00
2023-05-18T22:23:58.283Z,7.00
2023-05-18T22:26:28.798Z,5.90
2023-05-18T22:28:56.861Z,7.70
2023-05-18T22:31:25.108Z,7.70
2023-05-18T22:33:55.430Z,7.20
2023-05-18T22:36:23.705Z,9.40
2023-05-18T22:38:52.389Z,8.80
2023-05-18T22:41:22.997Z,7.50
2023-05-18T22:43:51.233Z,8.90
2023-05-18T22:46:19.630Z,7.80
2023-05-18T22:48:53.563Z,7.20
2023-05-18T22:51:28.398Z,9.80
2023-05-18T22:53:56.718Z,6.80
2023-05-18T22:56:24.791Z,6.70
2023-05-18T22:58:54.963Z,5.30
2023-05-18T23:03:57.209Z,6.40
2023-05-18T23:06:27.302Z,6.30
2023-05-18T23:08:55.597Z,7.00
2023-05-18T23:11:23.581Z,6.10
2023-05-18T23:14:02.615Z,7.60
2023-05-18T23:16:32.826Z,7.00
2023-05-18T23:19:01.824Z,5.40
2023-05-18T23:21:32.909Z,11.50
2023-05-18T23:24:06.443Z,7.90
2023-05-18T23:26:34.429Z,9.40
2023-05-18T23:29:02.353Z,10.40
2023-05-18T23:31:30.173Z,6.50
2023-05-18T23:34:00.957Z,7.90
2023-05-18T23:36:37.203Z,14.50
2023-05-18T23:39:10.129Z,7.10
2023-05-18T23:41:42.544Z,7.30
2023-05-18T23:44:10.648Z,7.90
2023-05-18T23:46:43.548Z,8.50
2023-05-18T23:49:13.937Z,7.80
2023-05-18T23:51:47.504Z,8.90
2023-05-18T23:54:15.571Z,7.50
2023-05-18T23:56:43.943Z,12.40
2023-05-18T23:59:15.647Z,12.50
